KSMF/SMF METAR and TAF weather

Enter ICAO airport designator
Station Type Date Time Source
KSMF METAR 2019/04/19 07:53 UTC NOAA

KSMF 190753Z 12003KT 10SM SCT250 18/13 A3000 RMK AO2 SLP157 T01780128 402780094


Station Type Date Time Source
KSMF Decoded METAR 2019/04/19 07:53 UTC NOAA

SACRAMENTO INTERNATIONAL AIRPORT, CA, United States (KSMF) 38-42N 121-36W 6M
Apr 19, 2019 - 03:53 AM EDT / 2019.04.19 0753 UTC
Wind: from the ESE (120 degrees) at 3 MPH (3 KT):0
Visibility: 10 mile(s):0
Sky conditions: partly cloudy
Temperature: 64.0 F (17.8 C)
Dew Point: 55.0 F (12.8 C)
Relative Humidity: 72%
Pressure (altimeter): 30 in. Hg (1015 hPa)
ob: KSMF 190753Z 12003KT 10SM SCT250 18/13 A3000 RMK AO2 SLP157 T01780128 402780094
cycle: 8

Station Type Date Time Source
KSMF TAF 2019/04/19 06:34 UTC NOAA

TAF KSMF 190531Z 1906/2006 VRB04KT P6SM SKC
FM192300 19007KT P6SM FEW250

Example: see airport list